Time;durP1;ratioP1;P1;durP2;ratioP2;P2;SDS_P1;SDS_P2;PMS_P1;PMS_P2;Temp;Humidity;BMP_temperature;BMP_pressure;BME280_temperature;BME280_humidity;BME280_pressure;Samples;Min_cycle;Max_cycle;Signal;HPM_P1;HPM_P2
2022/06/06 00:00:20;;;;;;;;;;;;;;;;;;5053579;28;19909;-75
2022/06/06 00:02:46;;;;;;;;;;;;;;;;;;5053579;28;19931;-74
2022/06/06 00:05:11;;;;;;;;;;;;;;;;;;5032210;28;20371;-76
2022/06/06 00:07:37;;;;;;;;;;;;;;;;;;5000867;28;19909;-76
2022/06/06 00:10:02;;;;;;;;;;;;;;;;;;5015909;28;19909;-76
2022/06/06 00:12:27;;;;;;;;;;;;;;;;;;5015765;28;20372;-76
2022/06/06 00:14:53;;;;;;;;;;;;;;;;;;5015954;28;20368;-75
2022/06/06 00:17:18;;;;;;;;;;;;;;;;;;5033354;28;19913;-76
2022/06/06 00:19:44;;;;;;;;;;;;;;;;;;5035691;28;19947;-75
2022/06/06 00:22:09;;;;;;;;;;;;;;;;;;5035572;28;19909;-76
2022/06/06 00:24:35;;;;;;;;;;;;;;;;;;5035539;28;19920;-76
2022/06/06 00:27:01;;;;;;;;;;;;;;;;;;5053207;28;19916;-75
2022/06/06 00:29:27;;;;;;;;;;;;;;;;;;5019037;28;20268;-77
2022/06/06 00:34:48;;;;;;;;;;;;;;;;;;5053174;28;19909;-75
2022/06/06 00:37:14;;;;;;;;;;;;;;;;;;5053215;28;19999;-74
2022/06/06 00:39:39;;;;;;;;;;;;;;;;;;5053002;28;19940;-75
2022/06/06 00:42:04;;;;;;;;;;;;;;;;;;5035452;28;20330;-76
2022/06/06 00:44:30;;;;;;;;;;;;;;;;;;5018394;28;20402;-76
2022/06/06 00:46:55;;;;;;;;;;;;;;;;;;5035275;28;20004;-76
2022/06/06 00:49:22;;;;;;;;;;;;;;;;;;5002459;28;20022;-75
2022/06/06 00:51:48;;;;;;;;;;;;;;;;;;5052753;28;19913;-75
2022/06/06 00:54:13;;;;;;;;;;;;;;;;;;5034919;28;20324;-76
2022/06/06 00:56:39;;;;;;;;;;;;;;;;;;5034897;28;19917;-76
2022/06/06 00:59:04;;;;;;;;;;;;;;;;;;5034884;28;19908;-76
2022/06/06 01:01:31;;;;;;;;;;;;;;;;;;5034769;28;20375;-77
2022/06/06 01:03:56;;;;;;;;;;;;;;;;;;5034565;28;19977;-76
2022/06/06 01:06:22;;;;;;;;;;;;;;;;;;5034716;28;20435;-76
2022/06/06 01:08:48;;;;;;;;;;;;;;;;;;5034895;28;19919;-75
2022/06/06 01:11:13;;;;;;;;;;;;;;;;;;5052491;28;19905;-76
2022/06/06 01:13:39;;;;;;;;;;;;;;;;;;5017884;28;19953;-76
2022/06/06 01:16:04;;;;;;;;;;;;;;;;;;5034484;28;20005;-76
2022/06/06 01:18:30;;;;;;;;;;;;;;;;;;5052174;28;19990;-75
2022/06/06 01:20:55;;;;;;;;;;;;;;;;;;5034591;28;19935;-76
2022/06/06 01:23:21;;;;;;;;;;;;;;;;;;5017614;28;19909;-75
2022/06/06 01:25:47;;;;;;;;;;;;;;;;;;5034445;28;20018;-75
2022/06/06 01:28:13;;;;;;;;;;;;;;;;;;5018017;28;19911;-76
2022/06/06 01:30:39;;;;;;;;;;;;;;;;;;5052289;28;20007;-76
2022/06/06 01:33:04;;;;;;;;;;;;;;;;;;5017984;28;19926;-75
2022/06/06 01:35:30;;;;;;;;;;;;;;;;;;5018070;28;19939;-77
2022/06/06 01:37:55;;;;;;;;;;;;;;;;;;5034328;28;19912;-77
2022/06/06 01:40:21;;;;;;;;;;;;;;;;;;5034448;28;19909;-76
2022/06/06 01:42:46;;;;;;;;;;;;;;;;;;5017876;28;20267;-75
2022/06/06 01:45:12;;;;;;;;;;;;;;;;;;5034376;28;20007;-74
2022/06/06 01:47:37;;;;;;;;;;;;;;;;;;5034233;28;19955;-75
2022/06/06 01:50:04;;;;;;;;;;;;;;;;;;5034423;28;19909;-76
2022/06/06 01:52:29;;;;;;;;;;;;;;;;;;5034112;28;19919;-76
2022/06/06 01:54:55;;;;;;;;;;;;;;;;;;5034512;28;20011;-75
2022/06/06 01:57:20;;;;;;;;;;;;;;;;;;5017651;28;20011;-76
2022/06/06 01:59:46;;;;;;;;;;;;;;;;;;5001517;28;19909;-76
2022/06/06 02:02:11;;;;;;;;;;;;;;;;;;5034179;28;19908;-74
2022/06/06 02:04:37;;;;;;;;;;;;;;;;;;5034811;28;20299;-74
2022/06/06 02:07:03;;;;;;;;;;;;;;;;;;5034083;28;19931;-76
2022/06/06 02:09:31;;;;;;;;;;;;;;;;;;5034175;28;19920;-76
2022/06/06 02:11:57;;;;;;;;;;;;;;;;;;5001384;28;19908;-77
2022/06/06 02:14:23;;;;;;;;;;;;;;;;;;5034029;28;19908;-75
2022/06/06 02:16:48;;;;;;;;;;;;;;;;;;5017623;28;19932;-74
2022/06/06 02:19:14;;;;;;;;;;;;;;;;;;5017694;28;19912;-76
2022/06/06 02:21:39;;;;;;;;;;;;;;;;;;5033782;28;20267;-75
2022/06/06 02:24:05;;;;;;;;;;;;;;;;;;5033819;28;20294;-75
2022/06/06 02:26:30;;;;;;;;;;;;;;;;;;5033979;28;20023;-76
2022/06/06 02:28:56;;;;;;;;;;;;;;;;;;5017564;28;19931;-76
2022/06/06 02:31:21;;;;;;;;;;;;;;;;;;5017607;28;20294;-75
2022/06/06 02:33:47;;;;;;;;;;;;;;;;;;5033967;28;20007;-76
2022/06/06 02:36:12;;;;;;;;;;;;;;;;;;5054266;28;19959;-76
2022/06/06 02:38:38;;;;;;;;;;;;;;;;;;5004918;28;20101;-76
2022/06/06 02:41:09;;;;;;;;;;;;;;;;;;5054564;28;19978;-74
2022/06/06 02:43:35;;;;;;;;;;;;;;;;;;5038732;28;19912;-75
2022/06/06 02:46:03;;;;;;;;;;;;;;;;;;5038177;28;19983;-75
2022/06/06 02:48:28;;;;;;;;;;;;;;;;;;5055421;28;19905;-75
2022/06/06 02:50:54;;;;;;;;;;;;;;;;;;5021118;28;19915;-74
2022/06/06 02:53:19;;;;;;;;;;;;;;;;;;5021065;28;19915;-75
2022/06/06 02:55:45;;;;;;;;;;;;;;;;;;5037928;28;20007;-75
2022/06/06 02:58:10;;;;;;;;;;;;;;;;;;5055701;28;19908;-75
2022/06/06 03:00:41;;;;;;;;;;;;;;;;;;5058239;28;19912;-75
2022/06/06 03:03:07;;;;;;;;;;;;;;;;;;5023122;28;19922;-75
2022/06/06 03:05:32;;;;;;;;;;;;;;;;;;5058666;28;19987;-75
2022/06/06 03:07:57;;;;;;;;;;;;;;;;;;5007863;28;19942;-75
2022/06/06 03:10:23;;;;;;;;;;;;;;;;;;5022603;28;19947;-76
2022/06/06 03:12:48;;;;;;;;;;;;;;;;;;5037560;28;20280;-75
2022/06/06 03:15:14;;;;;;;;;;;;;;;;;;5020506;28;20375;-76
2022/06/06 03:23:28;;;;;;;;;;;;;;;;;;4992731;28;19909;-74
2022/06/06 03:25:53;;;;;;;;;;;;;;;;;;4960587;28;20012;-75
2022/06/06 03:28:18;;;;;;;;;;;;;;;;;;4976543;28;19960;-74
2022/06/06 03:30:44;;;;;;;;;;;;;;;;;;4992881;28;20408;-74
2022/06/06 03:33:10;;;;;;;;;;;;;;;;;;4992756;28;20384;-75
2022/06/06 03:35:36;;;;;;;;;;;;;;;;;;4976408;28;20339;-75
2022/06/06 03:38:01;;;;;;;;;;;;;;;;;;4992718;28;20408;-75
2022/06/06 03:40:27;;;;;;;;;;;;;;;;;;4992652;28;20292;-75
2022/06/06 03:42:53;;;;;;;;;;;;;;;;;;4976967;28;19960;-76
2022/06/06 03:45:18;;;;;;;;;;;;;;;;;;4993559;28;19972;-73
2022/06/06 03:47:44;;;;;;;;;;;;;;;;;;4976231;28;20285;-74
2022/06/06 03:50:10;;;;;;;;;;;;;;;;;;4976785;28;19921;-75
2022/06/06 03:52:35;;;;;;;;;;;;;;;;;;4992375;28;20440;-74
2022/06/06 03:55:01;;;;;;;;;;;;;;;;;;5043815;28;19913;-75
2022/06/06 03:57:26;;;;;;;;;;;;;;;;;;5036226;28;20327;-75
2022/06/06 03:59:51;;;;;;;;;;;;;;;;;;5054057;28;19905;-75
2022/06/06 04:02:17;;;;;;;;;;;;;;;;;;5019651;28;19912;-74
2022/06/06 04:04:42;;;;;;;;;;;;;;;;;;5035735;28;19999;-75
2022/06/06 04:07:08;;;;;;;;;;;;;;;;;;5019359;28;19951;-76
2022/06/06 04:09:33;;;;;;;;;;;;;;;;;;5019106;28;19909;-76
2022/06/06 04:11:59;;;;;;;;;;;;;;;;;;5053628;28;19908;-76
2022/06/06 04:14:24;;;;;;;;;;;;;;;;;;5053658;28;19913;-75
2022/06/06 04:16:50;;;;;;;;;;;;;;;;;;5053486;28;19935;-76
2022/06/06 04:19:15;;;;;;;;;;;;;;;;;;5053436;28;20003;-75
2022/06/06 04:21:41;;;;;;;;;;;;;;;;;;5035755;28;19909;-75
2022/06/06 04:24:06;;;;;;;;;;;;;;;;;;5053196;28;19908;-75
2022/06/06 04:26:32;;;;;;;;;;;;;;;;;;5035840;28;19932;-75
2022/06/06 04:28:58;;;;;;;;;;;;;;;;;;5053334;28;19908;-75
2022/06/06 04:31:23;;;;;;;;;;;;;;;;;;5019198;28;19978;-75
2022/06/06 04:33:49;;;;;;;;;;;;;;;;;;5035181;28;19934;-75
2022/06/06 04:36:14;;;;;;;;;;;;;;;;;;5053125;28;19912;-75
2022/06/06 04:38:40;;;;;;;;;;;;;;;;;;5018941;28;19912;-75
2022/06/06 04:41:05;;;;;;;;;;;;;;;;;;5019089;28;19905;-74
2022/06/06 04:43:31;;;;;;;;;;;;;;;;;;5035327;28;19915;-74
2022/06/06 04:45:56;;;;;;;;;;;;;;;;;;5004510;28;19946;-74
2022/06/06 04:48:22;;;;;;;;;;;;;;;;;;5053680;28;19962;-76
2022/06/06 04:50:47;;;;;;;;;;;;;;;;;;5053006;28;19916;-76
2022/06/06 04:53:13;;;;;;;;;;;;;;;;;;5035190;28;19909;-76
2022/06/06 04:55:40;;;;;;;;;;;;;;;;;;5018857;28;19923;-75
2022/06/06 04:58:06;;;;;;;;;;;;;;;;;;5034735;28;19909;-74
2022/06/06 05:00:32;;;;;;;;;;;;;;;;;;5052599;28;19909;-74
2022/06/06 05:02:57;;;;;;;;;;;;;;;;;;5018666;28;19974;-75
2022/06/06 05:05:23;;;;;;;;;;;;;;;;;;5019490;28;19943;-76
2022/06/06 05:07:49;;;;;;;;;;;;;;;;;;5021281;28;19912;-74
2022/06/06 05:10:14;;;;;;;;;;;;;;;;;;5040830;28;19909;-77
2022/06/06 05:12:40;;;;;;;;;;;;;;;;;;5042499;28;19916;-74
2022/06/06 05:15:07;;;;;;;;;;;;;;;;;;5039142;28;19912;-74
2022/06/06 05:17:32;;;;;;;;;;;;;;;;;;5055448;28;19943;-74
2022/06/06 05:19:58;;;;;;;;;;;;;;;;;;5052568;22;19963;-79
2022/06/06 05:22:23;;;;;;;;;;;;;;;;;;5051128;28;19927;-77
2022/06/06 05:24:48;;;;;;;;;;;;;;;;;;5054095;28;20014;-78
2022/06/06 05:27:13;;;;;;;;;;;;;;;;;;5072660;28;19955;-78
2022/06/06 05:29:39;;;;;;;;;;;;;;;;;;5054462;28;19958;-79
2022/06/06 05:32:04;;;;;;;;;;;;;;;;;;5072327;28;20342;-78
2022/06/06 05:34:30;;;;;;;;;;;;;;;;;;5037948;28;19991;-79
2022/06/06 05:36:55;;;;;;;;;;;;;;;;;;5072203;28;19966;-79
2022/06/06 05:39:20;;;;;;;;;;;;;;;;;;5072314;28;19954;-79
2022/06/06 05:41:46;;;;;;;;;;;;;;;;;;5054716;28;19916;-78
2022/06/06 05:44:11;;;;;;;;;;;;;;;;;;5072396;28;19930;-78
2022/06/06 05:46:37;;;;;;;;;;;;;;;;;;5038323;28;19962;-78
2022/06/06 05:49:03;;;;;;;;;;;;;;;;;;5072586;28;20407;-78
2022/06/06 05:51:28;;;;;;;;;;;;;;;;;;5038132;28;19999;-78
2022/06/06 05:53:54;;;;;;;;;;;;;;;;;;5054486;28;19908;-78
2022/06/06 05:56:19;;;;;;;;;;;;;;;;;;5072242;28;19919;-79
2022/06/06 05:58:45;;;;;;;;;;;;;;;;;;5054303;28;20280;-78
2022/06/06 06:01:10;;;;;;;;;;;;;;;;;;5054784;28;19908;-78
2022/06/06 06:03:35;;;;;;;;;;;;;;;;;;5072002;28;20364;-78
2022/06/06 06:06:02;;;;;;;;;;;;;;;;;;5038083;28;19948;-78
2022/06/06 06:08:27;;;;;;;;;;;;;;;;;;5037830;28;20401;-78
2022/06/06 06:10:53;;;;;;;;;;;;;;;;;;5056757;28;19908;-78
2022/06/06 06:13:18;;;;;;;;;;;;;;;;;;5058675;28;19912;-79
2022/06/06 06:15:44;;;;;;;;;;;;;;;;;;5076068;28;20385;-78
2022/06/06 06:18:09;;;;;;;;;;;;;;;;;;5075919;28;20351;-78
2022/06/06 06:20:35;;;;;;;;;;;;;;;;;;5041500;28;20030;-78
2022/06/06 06:23:01;;;;;;;;;;;;;;;;;;5075374;28;20390;-78
2022/06/06 06:25:26;;;;;;;;;;;;;;;;;;5075695;28;19904;-79
2022/06/06 06:27:52;;;;;;;;;;;;;;;;;;5075838;28;19915;-78
2022/06/06 06:30:17;;;;;;;;;;;;;;;;;;5075475;28;20447;-79
2022/06/06 06:32:42;;;;;;;;;;;;;;;;;;5075700;28;19986;-78
2022/06/06 06:35:08;;;;;;;;;;;;;;;;;;5075691;28;19930;-78
2022/06/06 06:37:33;;;;;;;;;;;;;;;;;;5075321;28;19912;-79
2022/06/06 06:39:59;;;;;;;;;;;;;;;;;;5075439;28;20367;-80
2022/06/06 06:42:24;;;;;;;;;;;;;;;;;;5075199;28;20294;-79
2022/06/06 06:44:50;;;;;;;;;;;;;;;;;;5075585;28;20432;-78
2022/06/06 06:47:15;;;;;;;;;;;;;;;;;;5057827;28;19915;-77
2022/06/06 06:49:40;;;;;;;;;;;;;;;;;;5058257;28;20359;-78
2022/06/06 06:52:06;;;;;;;;;;;;;;;;;;5058617;28;19908;-78
2022/06/06 06:54:31;;;;;;;;;;;;;;;;;;5075841;28;20283;-79
2022/06/06 06:56:57;;;;;;;;;;;;;;;;;;5075383;28;19916;-79
2022/06/06 06:59:22;;;;;;;;;;;;;;;;;;5041098;28;19908;-79
2022/06/06 07:08:32;;;;;;;;;;;;;;;;;;5075766;28;20272;-80
2022/06/06 07:09:42;;;;;;;;;;;;;;;;;;5076673;28;19912;-80
2022/06/06 07:12:08;;;;;;;;;;;;;;;;;;5060170;28;19909;-79
2022/06/06 07:14:33;;;;;;;;;;;;;;;;;;5058941;28;20359;-79
2022/06/06 07:16:59;;;;;;;;;;;;;;;;;;5075622;28;19913;-78
2022/06/06 07:19:24;;;;;;;;;;;;;;;;;;5075310;28;19965;-79
2022/06/06 07:21:50;;;;;;;;;;;;;;;;;;5074127;28;19977;-79
2022/06/06 07:24:18;;;;;;;;;;;;;;;;;;5075772;28;19912;-79
2022/06/06 07:26:43;;;;;;;;;;;;;;;;;;5057815;28;20291;-80
2022/06/06 07:29:10;;;;;;;;;;;;;;;;;;5075397;28;19951;-79
2022/06/06 07:31:35;;;;;;;;;;;;;;;;;;5075540;28;19929;-79
2022/06/06 07:34:01;;;;;;;;;;;;;;;;;;5074874;28;19908;-78
2022/06/06 07:36:26;;;;;;;;;;;;;;;;;;5075122;28;19917;-79
2022/06/06 07:38:51;;;;;;;;;;;;;;;;;;5058318;28;19911;-78
2022/06/06 07:41:17;;;;;;;;;;;;;;;;;;5076489;28;20007;-81
2022/06/06 07:43:42;;;;;;;;;;;;;;;;;;5075084;28;20360;-78
2022/06/06 07:46:07;;;;;;;;;;;;;;;;;;5057756;28;19912;-78
2022/06/06 07:48:33;;;;;;;;;;;;;;;;;;5056853;28;19915;-79
2022/06/06 07:50:58;;;;;;;;;;;;;;;;;;5057168;28;19909;-79
2022/06/06 07:53:24;;;;;;;;;;;;;;;;;;5056574;28;19909;-78
2022/06/06 07:55:49;;;;;;;;;;;;;;;;;;5074281;28;19912;-78
2022/06/06 07:58:14;;;;;;;;;;;;;;;;;;5056412;28;20355;-78
2022/06/06 08:00:40;;;;;;;;;;;;;;;;;;5056697;28;19915;-80
2022/06/06 08:03:09;;;;;;;;;;;;;;;;;;5078333;28;19931;-78
2022/06/06 08:05:34;;;;;;;;;;;;;;;;;;5078078;28;19915;-81
2022/06/06 08:07:59;;;;;;;;;;;;;;;;;;5047187;28;19935;-79
2022/06/06 08:10:25;;;;;;;;;;;;;;;;;;5050888;28;19908;-80
2022/06/06 08:12:50;;;;;;;;;;;;;;;;;;5048395;28;19930;-79
2022/06/06 08:15:16;;;;;;;;;;;;;;;;;;5062579;28;20364;-79
2022/06/06 08:17:42;;;;;;;;;;;;;;;;;;5059172;28;19956;-79
2022/06/06 08:20:07;;;;;;;;;;;;;;;;;;5076432;28;19924;-79
2022/06/06 08:22:32;;;;;;;;;;;;;;;;;;5041754;28;19908;-79
2022/06/06 08:24:58;;;;;;;;;;;;;;;;;;5043408;28;19904;-77
2022/06/06 08:27:23;;;;;;;;;;;;;;;;;;5059438;28;19914;-79
2022/06/06 08:29:48;;;;;;;;;;;;;;;;;;5074436;28;20271;-78
2022/06/06 08:32:14;;;;;;;;;;;;;;;;;;5055572;28;19908;-80
2022/06/06 08:34:39;;;;;;;;;;;;;;;;;;5038699;28;19954;-79
2022/06/06 08:37:05;;;;;;;;;;;;;;;;;;5022030;28;20262;-80
2022/06/06 08:39:31;;;;;;;;;;;;;;;;;;5073089;28;19904;-79
2022/06/06 08:41:57;;;;;;;;;;;;;;;;;;5073642;28;19908;-79
2022/06/06 08:44:40;;;;;;;;;;;;;;;;;;5055091;28;20320;-79
2022/06/06 08:47:06;;;;;;;;;;;;;;;;;;5055420;28;19909;-79
2022/06/06 08:52:15;;;;;;;;;;;;;;;;;;5073032;28;19908;-79
2022/06/06 08:54:42;;;;;;;;;;;;;;;;;;5055104;28;20034;-78
2022/06/06 08:57:07;;;;;;;;;;;;;;;;;;5073490;28;19919;-77
2022/06/06 08:59:33;;;;;;;;;;;;;;;;;;5073200;28;19984;-79
2022/06/06 09:01:58;;;;;;;;;;;;;;;;;;5055535;28;19908;-81
2022/06/06 09:04:23;;;;;;;;;;;;;;;;;;5054513;28;19962;-79
2022/06/06 09:06:49;;;;;;;;;;;;;;;;;;5072548;28;19994;-79
2022/06/06 09:09:15;;;;;;;;;;;;;;;;;;5072722;28;19908;-77
2022/06/06 09:11:40;;;;;;;;;;;;;;;;;;5054719;28;19915;-78
2022/06/06 09:14:05;;;;;;;;;;;;;;;;;;5055051;28;19908;-80
2022/06/06 09:16:32;;;;;;;;;;;;;;;;;;5054288;28;19987;-79
2022/06/06 09:18:58;;;;;;;;;;;;;;;;;;5073088;28;19947;-79
2022/06/06 09:21:23;;;;;;;;;;;;;;;;;;5054609;28;19955;-79
2022/06/06 09:23:49;;;;;;;;;;;;;;;;;;5073269;28;19908;-79
2022/06/06 09:26:14;;;;;;;;;;;;;;;;;;5073057;28;19962;-79
2022/06/06 09:28:39;;;;;;;;;;;;;;;;;;5072540;28;19927;-79
2022/06/06 09:31:05;;;;;;;;;;;;;;;;;;5054346;28;19908;-79
2022/06/06 09:33:30;;;;;;;;;;;;;;;;;;5054149;28;19912;-78
2022/06/06 09:35:56;;;;;;;;;;;;;;;;;;5037782;28;19913;-80
2022/06/06 09:38:21;;;;;;;;;;;;;;;;;;5054731;28;19936;-79
2022/06/06 09:40:47;;;;;;;;;;;;;;;;;;5038207;28;19909;-79
2022/06/06 09:43:13;;;;;;;;;;;;;;;;;;5072676;28;19981;-80
2022/06/06 09:45:38;;;;;;;;;;;;;;;;;;5076674;28;19916;-79
2022/06/06 09:48:04;;;;;;;;;;;;;;;;;;5079035;28;20016;-79
2022/06/06 09:50:29;;;;;;;;;;;;;;;;;;5079065;28;20021;-80
2022/06/06 09:52:54;;;;;;;;;;;;;;;;;;5079636;28;20350;-79
2022/06/06 10:00:48;;;;;;;;;;;;;;;;;;5061087;28;20069;-79
2022/06/06 10:03:16;;;;;;;;;;;;;;;;;;5061172;28;20382;-79
2022/06/06 10:05:41;;;;;;;;;;;;;;;;;;5079269;28;20346;-80
2022/06/06 10:08:06;;;;;;;;;;;;;;;;;;5079179;28;19904;-78
2022/06/06 10:10:32;;;;;;;;;;;;;;;;;;5062023;28;20387;-79
2022/06/06 10:12:58;;;;;;;;;;;;;;;;;;5061101;28;19938;-79
2022/06/06 10:15:23;;;;;;;;;;;;;;;;;;5080126;28;19908;-79
2022/06/06 10:17:49;;;;;;;;;;;;;;;;;;5079011;28;20342;-78
2022/06/06 10:20:14;;;;;;;;;;;;;;;;;;5078625;28;19919;-79
2022/06/06 10:22:39;;;;;;;;;;;;;;;;;;5079196;28;19908;-78
2022/06/06 10:25:05;;;;;;;;;;;;;;;;;;5061397;28;19908;-78
2022/06/06 10:27:30;;;;;;;;;;;;;;;;;;5062034;28;19915;-79
2022/06/06 10:30:11;;;;;;;;;;;;;;;;;;5062247;28;19951;-78
2022/06/06 10:32:37;;;;;;;;;;;;;;;;;;5043994;28;20019;-77
2022/06/06 10:35:02;;;;;;;;;;;;;;;;;;5043947;28;20331;-79
2022/06/06 10:37:28;;;;;;;;;;;;;;;;;;5061086;28;19916;-79
2022/06/06 10:39:56;;;;;;;;;;;;;;;;;;5060609;28;19908;-77
2022/06/06 10:42:22;;;;;;;;;;;;;;;;;;5078385;28;19915;-78
2022/06/06 10:44:47;;;;;;;;;;;;;;;;;;5078182;28;19912;-77
2022/06/06 10:47:13;;;;;;;;;;;;;;;;;;5060566;28;19909;-78
2022/06/06 10:49:39;;;;;;;;;;;;;;;;;;5060232;28;20414;-78
2022/06/06 10:52:04;;;;;;;;;;;;;;;;;;5078194;28;20319;-78
2022/06/06 10:54:29;;;;;;;;;;;;;;;;;;5060013;28;20315;-78
2022/06/06 10:56:55;;;;;;;;;;;;;;;;;;5024814;28;19918;-79
2022/06/06 10:59:20;;;;;;;;;;;;;;;;;;5023751;28;19930;-79
2022/06/06 11:01:46;;;;;;;;;;;;;;;;;;5074974;28;20379;-79
2022/06/06 11:04:11;;;;;;;;;;;;;;;;;;5056992;28;19974;-79
2022/06/06 11:06:36;;;;;;;;;;;;;;;;;;5040343;28;19908;-79
2022/06/06 11:09:02;;;;;;;;;;;;;;;;;;5040480;28;19999;-80
2022/06/06 11:11:28;;;;;;;;;;;;;;;;;;5056708;28;20030;-77
2022/06/06 11:13:53;;;;;;;;;;;;;;;;;;5056714;28;19950;-78
2022/06/06 11:16:19;;;;;;;;;;;;;;;;;;5056860;28;20078;-78
2022/06/06 11:18:45;;;;;;;;;;;;;;;;;;5056981;28;19915;-76
2022/06/06 11:21:10;;;;;;;;;;;;;;;;;;5042525;22;19921;-78
2022/06/06 11:23:36;;;;;;;;;;;;;;;;;;5017188;28;20031;-77
2022/06/06 11:26:01;;;;;;;;;;;;;;;;;;5053449;28;20322;-75
2022/06/06 11:28:27;;;;;;;;;;;;;;;;;;5036680;28;20003;-78
2022/06/06 11:30:53;;;;;;;;;;;;;;;;;;5052698;28;19909;-78
2022/06/06 11:33:19;;;;;;;;;;;;;;;;;;5052801;28;19909;-77
2022/06/06 11:35:44;;;;;;;;;;;;;;;;;;5054124;28;19916;-77
2022/06/06 11:38:11;;;;;;;;;;;;;;;;;;5036406;28;19909;-77
2022/06/06 11:40:37;;;;;;;;;;;;;;;;;;5036197;28;19920;-77
2022/06/06 11:43:02;;;;;;;;;;;;;;;;;;5019686;28;19955;-76
2022/06/06 11:45:28;;;;;;;;;;;;;;;;;;5054011;28;20011;-77
2022/06/06 11:47:53;;;;;;;;;;;;;;;;;;5019937;28;19905;-77
2022/06/06 11:50:19;;;;;;;;;;;;;;;;;;5036151;28;19995;-78
2022/06/06 11:52:44;;;;;;;;;;;;;;;;;;5053571;28;20329;-76
2022/06/06 11:55:10;;;;;;;;;;;;;;;;;;5052428;28;20367;-76
2022/06/06 11:57:36;;;;;;;;;;;;;;;;;;5035903;28;19961;-76
2022/06/06 12:00:03;;;;;;;;;;;;;;;;;;5035969;28;19915;-77
2022/06/06 12:02:29;;;;;;;;;;;;;;;;;;5035954;28;19904;-76
2022/06/06 12:04:56;;;;;;;;;;;;;;;;;;5053567;28;19916;-77
2022/06/06 12:07:21;;;;;;;;;;;;;;;;;;5035617;28;20367;-75
2022/06/06 12:09:47;;;;;;;;;;;;;;;;;;5019701;28;19985;-77
2022/06/06 12:12:17;;;;;;;;;;;;;;;;;;5035672;28;19938;-77
2022/06/06 12:14:43;;;;;;;;;;;;;;;;;;5035278;28;19915;-76
2022/06/06 12:17:09;;;;;;;;;;;;;;;;;;5052167;28;20326;-76
2022/06/06 12:19:34;;;;;;;;;;;;;;;;;;5053563;28;19916;-77
2022/06/06 12:22:01;;;;;;;;;;;;;;;;;;5053290;28;20439;-76
2022/06/06 12:24:26;;;;;;;;;;;;;;;;;;5019298;28;19908;-77
2022/06/06 12:26:55;;;;;;;;;;;;;;;;;;5035577;28;20326;-77
2022/06/06 12:29:23;;;;;;;;;;;;;;;;;;5035844;28;19939;-77
2022/06/06 12:31:49;;;;;;;;;;;;;;;;;;5053061;28;20294;-78
2022/06/06 12:34:15;;;;;;;;;;;;;;;;;;5018494;28;20217;-77
2022/06/06 12:36:40;;;;;;;;;;;;;;;;;;5052771;28;19920;-77
2022/06/06 12:39:06;;;;;;;;;;;;;;;;;;5035014;28;20460;-77
2022/06/06 12:41:31;;;;;;;;;;;;;;;;;;5034979;28;20419;-77
2022/06/06 12:43:58;;;;;;;;;;;;;;;;;;5034695;28;20252;-76
2022/06/06 12:46:24;;;;;;;;;;;;;;;;;;5035032;28;19908;-77
2022/06/06 12:48:50;;;;;;;;;;;;;;;;;;5018687;28;20497;-77
2022/06/06 12:51:17;;;;;;;;;;;;;;;;;;5053052;28;20334;-77
2022/06/06 12:53:43;;;;;;;;;;;;;;;;;;5018830;28;19916;-77
2022/06/06 12:56:17;;;;;;;;;;;;;;;;;;5019389;28;19908;-77
2022/06/06 12:58:44;;;;;;;;;;;;;;;;;;5036117;28;19913;-76
2022/06/06 13:03:55;;;;;;;;;;;;;;;;;;5053932;28;19909;-77
2022/06/06 13:06:20;;;;;;;;;;;;;;;;;;5035651;28;20269;-77
2022/06/06 13:08:46;;;;;;;;;;;;;;;;;;5053782;28;20000;-78
2022/06/06 13:11:11;;;;;;;;;;;;;;;;;;5035695;28;20006;-77
2022/06/06 13:13:39;;;;;;;;;;;;;;;;;;5052971;28;20375;-77
2022/06/06 13:16:05;;;;;;;;;;;;;;;;;;5018228;28;20421;-76
2022/06/06 13:18:32;;;;;;;;;;;;;;;;;;5035159;28;19909;-75
2022/06/06 13:20:57;;;;;;;;;;;;;;;;;;5051667;28;19909;-76
2022/06/06 13:23:23;;;;;;;;;;;;;;;;;;5034451;28;19955;-75
2022/06/06 13:25:49;;;;;;;;;;;;;;;;;;5018442;28;20373;-77
2022/06/06 13:28:14;;;;;;;;;;;;;;;;;;5002030;28;19916;-74
2022/06/06 13:30:40;;;;;;;;;;;;;;;;;;5034664;28;19931;-76
2022/06/06 13:33:05;;;;;;;;;;;;;;;;;;5034352;28;19908;-77
2022/06/06 13:35:31;;;;;;;;;;;;;;;;;;5018277;28;19987;-76
2022/06/06 13:37:56;;;;;;;;;;;;;;;;;;5017171;28;20047;-76
2022/06/06 13:40:23;;;;;;;;;;;;;;;;;;5018110;28;20030;-76
2022/06/06 13:42:48;;;;;;;;;;;;;;;;;;5034115;28;19916;-77
2022/06/06 13:45:14;;;;;;;;;;;;;;;;;;5018062;28;20263;-75
2022/06/06 13:47:39;;;;;;;;;;;;;;;;;;5017563;28;20287;-77
2022/06/06 13:50:05;;;;;;;;;;;;;;;;;;5052077;28;19913;-77
2022/06/06 13:52:30;;;;;;;;;;;;;;;;;;5033832;28;20003;-76
2022/06/06 13:54:56;;;;;;;;;;;;;;;;;;5017589;28;19912;-75
2022/06/06 13:57:21;;;;;;;;;;;;;;;;;;5033957;28;19936;-76
2022/06/06 13:59:47;;;;;;;;;;;;;;;;;;5051908;28;19919;-77
2022/06/06 14:02:14;;;;;;;;;;;;;;;;;;5051563;28;20229;-76
2022/06/06 14:04:41;;;;;;;;;;;;;;;;;;5051577;28;19939;-76
2022/06/06 14:07:06;;;;;;;;;;;;;;;;;;5051578;28;20397;-76
2022/06/06 14:09:32;;;;;;;;;;;;;;;;;;5051800;28;19908;-75
2022/06/06 14:11:57;;;;;;;;;;;;;;;;;;5017481;28;19957;-77
2022/06/06 14:14:23;;;;;;;;;;;;;;;;;;5017219;28;20395;-76
2022/06/06 14:16:49;;;;;;;;;;;;;;;;;;5033526;28;19913;-76
2022/06/06 14:19:14;;;;;;;;;;;;;;;;;;5051604;28;19931;-76
2022/06/06 14:21:40;;;;;;;;;;;;;;;;;;5051289;28;19912;-76
2022/06/06 14:24:06;;;;;;;;;;;;;;;;;;5051393;28;19913;-76
2022/06/06 14:26:32;;;;;;;;;;;;;;;;;;5033802;28;20329;-76
2022/06/06 14:28:57;;;;;;;;;;;;;;;;;;5034261;28;19911;-76
2022/06/06 14:31:25;;;;;;;;;;;;;;;;;;5035527;28;19944;-74
2022/06/06 14:33:50;;;;;;;;;;;;;;;;;;5038147;28;19948;-75
2022/06/06 14:36:16;;;;;;;;;;;;;;;;;;5055274;28;19955;-76
2022/06/06 14:38:42;;;;;;;;;;;;;;;;;;5021072;28;19962;-76
2022/06/06 14:41:08;;;;;;;;;;;;;;;;;;5055343;28;20006;-76
2022/06/06 14:43:34;;;;;;;;;;;;;;;;;;5020594;28;20007;-75
2022/06/06 14:46:00;;;;;;;;;;;;;;;;;;5037155;28;19959;-76
2022/06/06 14:48:25;;;;;;;;;;;;;;;;;;5037178;28;19905;-76
2022/06/06 14:50:52;;;;;;;;;;;;;;;;;;5004552;28;19916;-76
2022/06/06 14:53:18;;;;;;;;;;;;;;;;;;5020827;28;20001;-76
2022/06/06 14:55:43;;;;;;;;;;;;;;;;;;5020635;28;19951;-76
2022/06/06 14:58:09;;;;;;;;;;;;;;;;;;5020450;28;20175;-76
2022/06/06 15:00:35;;;;;;;;;;;;;;;;;;5054645;28;19916;-77
2022/06/06 15:03:01;;;;;;;;;;;;;;;;;;5036827;28;19916;-76
2022/06/06 15:05:26;;;;;;;;;;;;;;;;;;5054799;28;19915;-76
2022/06/06 15:07:53;;;;;;;;;;;;;;;;;;5020649;28;19916;-76
2022/06/06 15:10:19;;;;;;;;;;;;;;;;;;5004132;28;19909;-76
2022/06/06 15:12:45;;;;;;;;;;;;;;;;;;5020212;28;19904;-75
2022/06/06 15:15:10;;;;;;;;;;;;;;;;;;5054636;28;19915;-78
2022/06/06 15:17:36;;;;;;;;;;;;;;;;;;5020458;28;20303;-78
2022/06/06 15:20:03;;;;;;;;;;;;;;;;;;5020656;28;19965;-78
2022/06/06 15:22:28;;;;;;;;;;;;;;;;;;5037547;28;19975;-76
2022/06/06 15:24:54;;;;;;;;;;;;;;;;;;5004947;28;20558;-77
2022/06/06 15:27:19;;;;;;;;;;;;;;;;;;5036927;28;19908;-76
2022/06/06 15:29:45;;;;;;;;;;;;;;;;;;5036595;28;19909;-78
2022/06/06 15:32:10;;;;;;;;;;;;;;;;;;5036661;28;20176;-77
2022/06/06 15:34:36;;;;;;;;;;;;;;;;;;5004151;28;20283;-78
2022/06/06 15:37:01;;;;;;;;;;;;;;;;;;5004107;28;19917;-77
2022/06/06 15:39:27;;;;;;;;;;;;;;;;;;5036994;28;20123;-77
2022/06/06 15:41:52;;;;;;;;;;;;;;;;;;5005258;28;19999;-77
2022/06/06 15:44:18;;;;;;;;;;;;;;;;;;5036924;28;20059;-76
2022/06/06 15:46:45;;;;;;;;;;;;;;;;;;5055765;28;20384;-77
2022/06/06 15:49:10;;;;;;;;;;;;;;;;;;5020973;28;19947;-77
2022/06/06 15:51:36;;;;;;;;;;;;;;;;;;5038130;28;19958;-77
2022/06/06 15:54:02;;;;;;;;;;;;;;;;;;5036475;28;19913;-75
2022/06/06 15:56:30;;;;;;;;;;;;;;;;;;5053928;28;19912;-76
2022/06/06 15:58:56;;;;;;;;;;;;;;;;;;5025209;28;19909;-76
2022/06/06 16:01:21;;;;;;;;;;;;;;;;;;5049361;28;19975;-76
2022/06/06 16:03:47;;;;;;;;;;;;;;;;;;5035930;28;20264;-76
2022/06/06 16:06:12;;;;;;;;;;;;;;;;;;5035782;28;19940;-77
2022/06/06 16:08:38;;;;;;;;;;;;;;;;;;5035702;28;19912;-77
2022/06/06 16:11:04;;;;;;;;;;;;;;;;;;5019420;28;19963;-77
2022/06/06 16:13:30;;;;;;;;;;;;;;;;;;5019545;28;19909;-77
2022/06/06 16:15:56;;;;;;;;;;;;;;;;;;5035611;28;19916;-76
2022/06/06 16:18:21;;;;;;;;;;;;;;;;;;5053665;28;19908;-76
2022/06/06 16:20:47;;;;;;;;;;;;;;;;;;5035396;28;20724;-77
2022/06/06 16:23:13;;;;;;;;;;;;;;;;;;5053124;28;20453;-75
2022/06/06 16:25:39;;;;;;;;;;;;;;;;;;5053626;28;19919;-76
2022/06/06 16:28:07;;;;;;;;;;;;;;;;;;5035972;28;19947;-77
2022/06/06 16:30:34;;;;;;;;;;;;;;;;;;5053594;28;20003;-76
2022/06/06 16:33:00;;;;;;;;;;;;;;;;;;5019058;28;19909;-77
2022/06/06 16:35:25;;;;;;;;;;;;;;;;;;5053197;28;19915;-76
2022/06/06 16:37:51;;;;;;;;;;;;;;;;;;5035027;28;19939;-76
2022/06/06 16:40:17;;;;;;;;;;;;;;;;;;5053089;28;19919;-75
2022/06/06 16:48:11;;;;;;;;;;;;;;;;;;5034824;28;19932;-75
2022/06/06 16:50:36;;;;;;;;;;;;;;;;;;5018472;28;20279;-74
2022/06/06 16:53:02;;;;;;;;;;;;;;;;;;5018149;28;19905;-76
2022/06/06 16:55:27;;;;;;;;;;;;;;;;;;5034804;28;19908;-76
2022/06/06 16:57:53;;;;;;;;;;;;;;;;;;5044220;28;19913;-76
2022/06/06 17:00:18;;;;;;;;;;;;;;;;;;5034660;28;20279;-75
2022/06/06 17:02:44;;;;;;;;;;;;;;;;;;5034572;28;20276;-76
2022/06/06 17:05:10;;;;;;;;;;;;;;;;;;5034764;28;19916;-76